createdAt,value
2022-11-09T00:01:02.489Z,3.92
2022-11-09T00:03:31.723Z,8.88
2022-11-09T00:06:00.791Z,7.13
2022-11-09T00:08:29.219Z,6.45
2022-11-09T00:11:02.869Z,3.95
2022-11-09T00:13:30.905Z,6.53
2022-11-09T00:16:00.134Z,8.73
2022-11-09T00:18:27.961Z,5.55
2022-11-09T00:20:57.352Z,3.47
2022-11-09T00:23:25.119Z,7.15
2022-11-09T00:25:52.823Z,5.45
2022-11-09T00:28:20.699Z,6.47
2022-11-09T00:30:48.595Z,4.68
2022-11-09T00:33:16.463Z,8.95
2022-11-09T00:35:44.609Z,6.13
2022-11-09T00:38:13.709Z,3.55
2022-11-09T00:40:41.518Z,4.18
2022-11-09T00:43:09.677Z,4.50
2022-11-09T00:45:37.714Z,7.97
2022-11-09T00:48:05.616Z,6.32
2022-11-09T00:50:34.112Z,5.18
2022-11-09T00:53:02.274Z,11.02
2022-11-09T00:55:31.409Z,4.50
2022-11-09T00:57:59.097Z,6.60
2022-11-09T01:00:26.821Z,7.30
2022-11-09T01:02:54.869Z,5.13
2022-11-09T01:05:22.574Z,4.13
2022-11-09T01:07:50.706Z,6.10
2022-11-09T01:10:18.445Z,5.57
2022-11-09T01:12:47.497Z,6.57
2022-11-09T01:15:15.198Z,6.95
2022-11-09T01:17:42.908Z,9.15
2022-11-09T01:20:12.024Z,4.80
2022-11-09T01:22:39.711Z,8.13
2022-11-09T01:25:08.505Z,8.45
2022-11-09T01:27:36.798Z,6.72
2022-11-09T01:30:06.914Z,4.05
2022-11-09T01:32:34.911Z,4.97
2022-11-09T01:35:02.636Z,5.78
2022-11-09T01:37:30.360Z,7.30
2022-11-09T01:39:58.062Z,7.70
2022-11-09T01:42:26.678Z,8.40
2022-11-09T01:45:30.108Z,5.18
2022-11-09T01:48:02.927Z,13.35
2022-11-09T01:50:39.281Z,4.88
2022-11-09T01:53:12.135Z,6.22
2022-11-09T01:55:40.266Z,5.72
2022-11-09T01:58:11.703Z,5.80
2022-11-09T02:00:45.304Z,8.63
2022-11-09T02:03:19.103Z,6.63
2022-11-09T02:05:48.750Z,12.18
2022-11-09T02:08:19.782Z,8.15
2022-11-09T02:10:56.583Z,8.93
2022-11-09T02:13:27.853Z,5.20
2022-11-09T02:15:57.282Z,6.67
2022-11-09T02:18:25.310Z,5.80
2022-11-09T02:20:56.368Z,6.85
2022-11-09T02:23:25.480Z,7.07
2022-11-09T02:25:58.055Z,6.82
2022-11-09T02:28:28.204Z,4.97
2022-11-09T02:30:58.073Z,6.03
2022-11-09T02:33:26.143Z,9.02
2022-11-09T02:35:55.368Z,8.02
2022-11-09T02:38:23.090Z,6.60
2022-11-09T02:40:53.895Z,6.85
2022-11-09T02:43:22.220Z,6.10
2022-11-09T02:45:50.196Z,7.63
2022-11-09T02:48:18.164Z,7.70
2022-11-09T02:50:45.825Z,6.80
2022-11-09T02:53:14.976Z,7.25
2022-11-09T02:55:42.714Z,10.10
2022-11-09T02:58:10.423Z,7.50
2022-11-09T03:00:38.355Z,8.02
2022-11-09T03:03:06.925Z,7.03
2022-11-09T03:05:34.749Z,6.72
2022-11-09T03:08:03.114Z,7.20
2022-11-09T03:10:32.265Z,7.50
2022-11-09T03:13:00.357Z,10.57
2022-11-09T03:15:28.277Z,5.90
2022-11-09T03:17:56.193Z,6.57
2022-11-09T03:20:23.945Z,10.95
2022-11-09T03:22:51.996Z,10.13
2022-11-09T03:25:19.739Z,14.38
2022-11-09T03:27:48.864Z,9.50
2022-11-09T03:30:18.975Z,5.50
2022-11-09T03:32:50.400Z,8.95
2022-11-09T03:35:18.581Z,8.52
2022-11-09T03:37:46.315Z,6.97
2022-11-09T03:40:14.162Z,7.28
2022-11-09T03:42:44.814Z,8.27
2022-11-09T03:45:15.180Z,9.25
2022-11-09T03:47:43.513Z,6.50
2022-11-09T03:50:12.708Z,7.38
2022-11-09T03:52:40.776Z,7.25
2022-11-09T03:55:09.130Z,13.73
2022-11-09T03:57:36.912Z,7.90
2022-11-09T04:00:05.943Z,6.70
2022-11-09T04:02:35.081Z,9.90
2022-11-09T04:05:02.859Z,9.57
2022-11-09T04:07:30.631Z,10.27
2022-11-09T04:09:58.624Z,8.20
2022-11-09T04:12:26.712Z,9.35
2022-11-09T04:14:54.515Z,8.93
2022-11-09T04:17:22.247Z,11.73
2022-11-09T04:19:51.295Z,13.75
2022-11-09T04:22:19.049Z,12.25
2022-11-09T04:24:46.761Z,13.25
2022-11-09T04:27:14.442Z,8.80
2022-11-09T04:29:42.414Z,9.43
2022-11-09T04:32:10.181Z,11.35
2022-11-09T04:34:37.952Z,8.55
2022-11-09T04:37:07.110Z,13.73
2022-11-09T04:39:35.156Z,13.27
2022-11-09T04:42:03.016Z,9.15
2022-11-09T04:44:31.277Z,8.73
2022-11-09T04:46:59.091Z,10.50
2022-11-09T04:49:26.903Z,15.40
2022-11-09T04:51:54.691Z,11.00
2022-11-09T04:54:23.988Z,10.23
2022-11-09T04:56:51.719Z,10.40
2022-11-09T04:59:19.485Z,10.55
2022-11-09T05:01:47.209Z,12.55
2022-11-09T05:04:14.993Z,13.85
2022-11-09T05:06:43.165Z,12.82
2022-11-09T05:09:10.903Z,11.98
2022-11-09T05:11:40.094Z,10.10
2022-11-09T05:14:07.850Z,22.05
2022-11-09T05:16:35.623Z,7.70
2022-11-09T05:19:03.875Z,10.80
2022-11-09T05:21:31.627Z,10.88
2022-11-09T05:24:02.416Z,13.48
2022-11-09T05:26:32.078Z,9.82
2022-11-09T05:29:02.671Z,8.13
2022-11-09T05:31:31.081Z,7.82
2022-11-09T05:33:59.438Z,9.18
2022-11-09T05:36:28.105Z,7.78
2022-11-09T05:38:56.300Z,9.05
2022-11-09T05:41:24.506Z,8.38
2022-11-09T05:43:52.488Z,10.55
2022-11-09T05:46:22.482Z,7.53
2022-11-09T05:48:50.235Z,8.82
2022-11-09T05:51:17.956Z,12.55
2022-11-09T05:53:47.043Z,10.85
2022-11-09T05:56:15.522Z,8.52
2022-11-09T05:58:43.920Z,9.38
2022-11-09T06:01:15.872Z,10.90
2022-11-09T06:03:45.048Z,15.57
2022-11-09T06:06:14.362Z,12.77
2022-11-09T06:08:44.789Z,8.57
2022-11-09T06:11:19.929Z,19.42
2022-11-09T06:13:50.858Z,12.23
2022-11-09T06:16:18.617Z,13.60
2022-11-09T06:18:47.785Z,13.48
2022-11-09T06:21:15.519Z,11.75
2022-11-09T06:23:43.293Z,13.68
2022-11-09T06:26:12.669Z,15.55
2022-11-09T06:28:41.662Z,11.48
2022-11-09T06:31:12.872Z,14.77
2022-11-09T06:33:40.694Z,11.27
2022-11-09T06:36:11.148Z,10.85
2022-11-09T06:38:39.040Z,10.38
2022-11-09T06:41:06.875Z,7.78
2022-11-09T06:43:34.655Z,7.95
2022-11-09T06:46:04.777Z,6.05
2022-11-09T06:48:32.555Z,9.77
2022-11-09T06:51:04.316Z,14.65
2022-11-09T06:53:34.984Z,7.47
2022-11-09T06:56:04.889Z,7.85
2022-11-09T06:58:33.531Z,5.00
2022-11-09T07:01:01.401Z,6.57
2022-11-09T07:03:29.120Z,9.30
2022-11-09T07:05:56.861Z,7.57
2022-11-09T07:08:24.693Z,7.70
2022-11-09T07:10:53.818Z,6.10
2022-11-09T07:13:21.867Z,7.18
2022-11-09T07:15:54.594Z,7.05
2022-11-09T07:18:22.455Z,4.93
2022-11-09T07:20:50.614Z,5.53
2022-11-09T07:23:18.975Z,9.55
2022-11-09T07:25:47.272Z,4.40
2022-11-09T07:28:16.793Z,4.93
2022-11-09T07:30:44.474Z,4.10
2022-11-09T07:33:16.007Z,7.82
2022-11-09T07:35:43.747Z,5.53
2022-11-09T07:38:11.765Z,5.78
2022-11-09T07:40:39.556Z,5.43
2022-11-09T07:43:07.973Z,10.10
2022-11-09T07:45:37.949Z,3.20
2022-11-09T07:48:08.161Z,8.13
2022-11-09T07:50:37.596Z,10.52
2022-11-09T07:53:07.117Z,8.88
2022-11-09T07:55:36.158Z,11.05
2022-11-09T07:58:06.234Z,14.55
2022-11-09T08:00:35.653Z,12.77
2022-11-09T08:03:05.342Z,14.50
2022-11-09T08:05:33.477Z,9.80
2022-11-09T08:08:03.137Z,13.00
2022-11-09T08:10:32.392Z,12.00
2022-11-09T08:13:02.420Z,14.20
2022-11-09T08:15:31.533Z,8.63
2022-11-09T08:18:01.140Z,6.55
2022-11-09T08:20:30.645Z,7.05
2022-11-09T08:23:03.751Z,6.75
2022-11-09T08:25:32.509Z,13.38
2022-11-09T08:28:00.362Z,8.98
2022-11-09T08:30:28.812Z,6.72
2022-11-09T08:32:56.665Z,9.32
2022-11-09T08:35:25.767Z,9.50
2022-11-09T08:37:55.648Z,8.18
2022-11-09T08:40:26.916Z,7.10
2022-11-09T08:42:54.683Z,10.00
2022-11-09T08:45:22.758Z,12.35
2022-11-09T08:47:57.770Z,8.18
2022-11-09T08:50:25.674Z,7.63
2022-11-09T08:52:55.045Z,5.45
2022-11-09T08:55:23.106Z,13.55
2022-11-09T08:57:50.930Z,11.88
2022-11-09T09:00:19.302Z,12.70
2022-11-09T09:02:47.018Z,9.88
2022-11-09T09:05:14.760Z,8.40
2022-11-09T09:07:42.486Z,6.80
2022-11-09T09:10:11.897Z,9.35
2022-11-09T09:12:39.705Z,9.45
2022-11-09T09:15:08.168Z,8.88
2022-11-09T09:17:36.492Z,8.73
2022-11-09T09:20:05.254Z,10.40
2022-11-09T09:22:33.461Z,9.10
2022-11-09T09:25:01.352Z,8.05
2022-11-09T09:27:30.556Z,7.13
2022-11-09T09:29:59.039Z,14.55
2022-11-09T09:32:27.006Z,8.23
2022-11-09T09:34:54.748Z,5.68
2022-11-09T09:37:22.825Z,5.03
2022-11-09T09:39:50.569Z,6.10
2022-11-09T09:42:21.731Z,5.65
2022-11-09T09:44:58.001Z,9.60
2022-11-09T09:47:35.174Z,8.80
2022-11-09T09:50:05.304Z,6.68
2022-11-09T09:52:39.808Z,7.30
2022-11-09T09:55:16.948Z,7.25
2022-11-09T09:57:51.577Z,10.02
2022-11-09T10:00:24.818Z,7.20
2022-11-09T10:02:53.611Z,7.13
2022-11-09T10:05:28.194Z,11.57
2022-11-09T10:08:10.192Z,3.95
2022-11-09T10:10:45.910Z,6.68
2022-11-09T10:13:30.053Z,8.43
2022-11-09T10:16:06.580Z,6.68
2022-11-09T10:18:48.991Z,5.55
2022-11-09T10:21:30.084Z,4.78
2022-11-09T10:24:09.688Z,19.02
2022-11-09T10:26:43.984Z,9.98
2022-11-09T10:29:22.488Z,6.63
2022-11-09T10:31:53.969Z,13.05
2022-11-09T10:34:26.398Z,6.57
2022-11-09T10:37:02.662Z,11.93
2022-11-09T10:39:40.761Z,12.68
2022-11-09T10:42:11.574Z,9.05
2022-11-09T10:44:39.406Z,11.02
2022-11-09T10:47:13.834Z,11.05
2022-11-09T10:49:42.181Z,10.45
2022-11-09T10:52:32.764Z,11.48
2022-11-09T10:55:24.852Z,13.85
2022-11-09T10:57:56.377Z,15.35
2022-11-09T11:00:24.441Z,13.00
2022-11-09T11:02:54.689Z,9.20
2022-11-09T11:05:29.235Z,9.52
2022-11-09T11:07:57.108Z,14.68
2022-11-09T11:10:25.579Z,14.50
2022-11-09T11:13:19.072Z,11.85
2022-11-09T11:15:47.493Z,10.35
2022-11-09T11:18:22.356Z,12.23
2022-11-09T11:21:04.938Z,12.90
2022-11-09T11:23:36.938Z,14.18
2022-11-09T11:26:21.730Z,15.95
2022-11-09T11:28:53.472Z,10.88
2022-11-09T11:31:22.705Z,16.17
2022-11-09T11:33:51.813Z,15.32
2022-11-09T11:36:27.772Z,13.13
2022-11-09T11:39:02.583Z,13.73
2022-11-09T11:41:48.923Z,12.63
2022-11-09T11:44:27.747Z,19.90
2022-11-09T11:47:03.139Z,14.00
2022-11-09T11:49:57.455Z,30.38
2022-11-09T11:52:33.598Z,25.10
2022-11-09T11:55:19.658Z,28.98
2022-11-09T11:57:59.374Z,23.13
2022-11-09T12:00:27.479Z,19.27
2022-11-09T12:03:22.446Z,13.40
2022-11-09T12:06:06.678Z,13.07
2022-11-09T12:08:46.180Z,12.02
2022-11-09T12:11:24.063Z,12.43
2022-11-09T12:14:03.195Z,11.27
2022-11-09T12:16:40.158Z,17.80
2022-11-09T12:19:35.255Z,17.17
2022-11-09T12:22:09.914Z,13.13
2022-11-09T12:24:44.794Z,8.65
2022-11-09T12:27:39.546Z,9.40
2022-11-09T12:30:13.976Z,10.95
2022-11-09T12:32:47.444Z,12.50
2022-11-09T12:35:24.729Z,13.00
2022-11-09T12:37:59.985Z,12.45
2022-11-09T12:40:31.055Z,15.88
2022-11-09T12:43:05.146Z,14.52
2022-11-09T12:45:35.659Z,13.85
2022-11-09T12:48:12.059Z,12.98
2022-11-09T12:50:40.228Z,12.23
2022-11-09T12:53:10.158Z,13.73
2022-11-09T12:55:45.994Z,12.98
2022-11-09T12:58:24.611Z,16.40
2022-11-09T13:00:55.772Z,10.82
2022-11-09T13:03:27.465Z,12.77
2022-11-09T13:06:17.682Z,10.82
2022-11-09T13:08:59.850Z,15.02
2022-11-09T13:11:36.895Z,9.52
2022-11-09T13:14:35.007Z,16.48
2022-11-09T13:17:23.376Z,10.20
2022-11-09T13:19:55.346Z,13.27
2022-11-09T13:23:02.652Z,10.48
2022-11-09T13:25:50.885Z,13.55
2022-11-09T13:28:57.384Z,14.57
2022-11-09T13:31:54.808Z,17.42
2022-11-09T13:34:43.798Z,12.80
2022-11-09T13:37:54.666Z,12.05
2022-11-09T13:40:44.915Z,16.52
2022-11-09T13:43:21.853Z,11.73
2022-11-09T13:45:52.753Z,14.65
2022-11-09T13:48:42.647Z,12.07
2022-11-09T13:51:13.942Z,14.07
2022-11-09T13:53:54.338Z,10.38
2022-11-09T13:56:29.329Z,12.68
2022-11-09T13:59:00.975Z,11.82
2022-11-09T14:01:34.207Z,16.02
2022-11-09T14:04:05.254Z,13.07
2022-11-09T14:06:34.361Z,20.52
2022-11-09T14:09:02.721Z,20.73
2022-11-09T14:12:02.937Z,24.02
2022-11-09T14:14:55.635Z,22.35
2022-11-09T14:17:30.717Z,20.65
2022-11-09T14:20:11.675Z,21.70
2022-11-09T14:22:41.790Z,20.17
2022-11-09T14:25:15.812Z,23.13
2022-11-09T14:27:57.490Z,21.50
2022-11-09T14:30:29.481Z,19.77
2022-11-09T14:32:58.737Z,23.15
2022-11-09T14:35:29.938Z,23.95
2022-11-09T14:37:59.851Z,18.97
2022-11-09T14:40:29.653Z,18.35
2022-11-09T14:43:02.628Z,19.88
2022-11-09T14:45:30.453Z,25.38
2022-11-09T14:48:00.235Z,25.25
2022-11-09T14:50:31.543Z,24.08
2022-11-09T14:53:00.595Z,29.85
2022-11-09T14:55:29.362Z,25.77
2022-11-09T14:57:59.365Z,18.27
2022-11-09T15:00:33.459Z,29.10
2022-11-09T15:03:02.135Z,20.65
2022-11-09T15:05:39.992Z,25.10
2022-11-09T15:08:19.373Z,26.85
2022-11-09T15:10:51.022Z,31.20
2022-11-09T15:13:29.183Z,17.08
2022-11-09T15:15:57.150Z,25.08
2022-11-09T15:18:33.743Z,18.70
2022-11-09T15:21:13.874Z,20.88
2022-11-09T15:23:43.281Z,21.35
2022-11-09T15:26:27.429Z,21.08
2022-11-09T15:28:56.554Z,15.07
2022-11-09T15:31:25.794Z,16.63
2022-11-09T15:33:57.697Z,15.65
2022-11-09T15:36:31.983Z,15.60
2022-11-09T15:39:09.141Z,17.48
2022-11-09T15:41:38.437Z,18.45
2022-11-09T15:44:07.969Z,19.17
2022-11-09T15:46:41.518Z,18.05
2022-11-09T15:49:18.278Z,16.20
2022-11-09T15:51:46.500Z,16.35
2022-11-09T15:54:15.299Z,13.00
2022-11-09T15:56:43.675Z,18.30
2022-11-09T15:59:19.094Z,13.68
2022-11-09T16:01:46.884Z,17.50
2022-11-09T16:04:14.702Z,15.43
2022-11-09T16:06:46.333Z,17.38
2022-11-09T16:11:42.151Z,16.15
2022-11-09T16:14:09.910Z,16.20
2022-11-09T16:16:39.106Z,16.42
2022-11-09T16:19:06.853Z,13.13
2022-11-09T16:21:34.593Z,19.58
2022-11-09T16:24:02.329Z,16.73
2022-11-09T16:26:30.165Z,17.63
2022-11-09T16:28:57.917Z,20.13
2022-11-09T16:31:48.286Z,25.00
2022-11-09T16:34:16.101Z,19.95
2022-11-09T16:36:48.954Z,16.35
2022-11-09T16:39:21.029Z,19.98
2022-11-09T16:41:51.180Z,19.23
2022-11-09T16:44:23.622Z,18.05
2022-11-09T16:46:52.048Z,14.80
2022-11-09T16:49:21.248Z,15.00
2022-11-09T16:51:49.086Z,13.98
2022-11-09T16:54:16.833Z,11.15
2022-11-09T16:56:44.979Z,12.75
2022-11-09T16:59:12.876Z,15.98
2022-11-09T17:01:40.961Z,12.50
2022-11-09T17:04:08.915Z,10.52
2022-11-09T17:06:38.090Z,11.65
2022-11-09T17:09:05.889Z,9.75
2022-11-09T17:11:33.691Z,9.45
2022-11-09T17:14:02.101Z,9.55
2022-11-09T17:16:29.894Z,12.50
2022-11-09T17:18:58.547Z,11.98
2022-11-09T17:21:28.401Z,11.02
2022-11-09T17:23:58.231Z,10.20
2022-11-09T17:26:26.937Z,10.82
2022-11-09T17:28:54.685Z,11.45
2022-11-09T17:31:26.578Z,14.95
2022-11-09T17:33:58.442Z,8.27
2022-11-09T17:36:56.792Z,9.00
2022-11-09T17:39:17.909Z,9.00
2022-11-09T17:41:45.665Z,29.55
2022-11-09T17:44:13.407Z,24.83
2022-11-09T17:46:41.227Z,6.88
2022-11-09T17:49:10.391Z,10.02
2022-11-09T17:51:38.459Z,9.18
2022-11-09T17:54:06.598Z,17.77
2022-11-09T17:56:35.948Z,26.45
2022-11-09T17:59:06.216Z,14.63
2022-11-09T18:01:40.818Z,8.30
2022-11-09T18:04:10.707Z,10.20
2022-11-09T18:06:39.246Z,8.18
2022-11-09T18:11:57.157Z,6.97
2022-11-09T18:14:24.917Z,6.53
2022-11-09T18:16:52.663Z,6.00
2022-11-09T18:19:20.517Z,7.88
2022-11-09T18:21:48.304Z,9.68
2022-11-09T18:24:16.204Z,7.82
2022-11-09T18:26:43.979Z,6.03
2022-11-09T18:29:13.095Z,5.95
2022-11-09T18:31:40.931Z,8.70
2022-11-09T18:34:08.835Z,10.55
2022-11-09T18:36:36.567Z,10.00
2022-11-09T18:39:04.726Z,10.05
2022-11-09T18:41:33.015Z,42.67
2022-11-09T18:44:00.843Z,15.02
2022-11-09T18:46:33.093Z,12.55
2022-11-09T18:49:00.949Z,9.60
2022-11-09T18:51:28.702Z,12.27
2022-11-09T18:53:56.558Z,10.50
2022-11-09T18:56:25.879Z,16.60
2022-11-09T18:58:55.194Z,12.60
2022-11-09T19:01:24.443Z,13.23
2022-11-09T19:03:58.976Z,9.55
2022-11-09T19:06:28.189Z,9.77
2022-11-09T19:09:13.648Z,10.52
2022-11-09T19:11:41.750Z,8.93
2022-11-09T19:14:10.337Z,8.50
2022-11-09T19:16:38.158Z,9.57
2022-11-09T19:19:07.278Z,7.75
2022-11-09T19:21:41.397Z,9.82
2022-11-09T19:24:12.167Z,11.60
2022-11-09T19:26:40.277Z,8.98
2022-11-09T19:29:08.973Z,11.68
2022-11-09T19:31:37.118Z,12.55
2022-11-09T19:34:05.064Z,10.93
2022-11-09T19:36:34.699Z,8.52
2022-11-09T19:39:02.902Z,13.52
2022-11-09T19:41:30.656Z,9.07
2022-11-09T19:43:59.601Z,10.35
2022-11-09T19:46:30.369Z,11.07
2022-11-09T19:48:58.841Z,8.68
2022-11-09T19:51:26.834Z,10.38
2022-11-09T19:54:03.013Z,9.13
2022-11-09T19:56:32.889Z,9.23
2022-11-09T19:59:04.638Z,34.45
2022-11-09T20:01:32.712Z,26.38
2022-11-09T20:04:09.909Z,17.73
2022-11-09T20:06:41.232Z,11.52
2022-11-09T20:09:12.163Z,9.43
2022-11-09T20:12:00.041Z,7.60
2022-11-09T20:14:27.813Z,9.40
2022-11-09T20:17:00.575Z,9.65
2022-11-09T20:19:32.822Z,11.70
2022-11-09T20:22:00.619Z,14.98
2022-11-09T20:24:29.806Z,12.23
2022-11-09T20:26:57.634Z,10.32
2022-11-09T20:29:25.379Z,9.25
2022-11-09T20:31:53.151Z,11.63
2022-11-09T20:34:20.916Z,14.10
2022-11-09T20:36:48.815Z,12.02
2022-11-09T20:39:19.406Z,12.48
2022-11-09T20:41:50.358Z,18.27
2022-11-09T20:44:20.661Z,14.90
2022-11-09T20:46:49.605Z,14.05
2022-11-09T20:49:17.400Z,15.65
2022-11-09T20:51:45.230Z,17.25
2022-11-09T20:54:12.988Z,18.48
2022-11-09T20:56:40.816Z,12.95
2022-11-09T20:59:10.186Z,17.40
2022-11-09T21:01:38.313Z,14.88
2022-11-09T21:04:06.310Z,17.30
2022-11-09T21:06:34.294Z,17.10
2022-11-09T21:09:04.604Z,37.55
2022-11-09T21:11:59.323Z,24.15
2022-11-09T21:14:28.499Z,21.52
2022-11-09T21:16:56.316Z,21.13
2022-11-09T21:19:24.112Z,19.48
2022-11-09T21:21:51.844Z,22.95
2022-11-09T21:24:37.175Z,24.88
2022-11-09T21:27:22.563Z,20.75
2022-11-09T21:29:51.796Z,15.68
2022-11-09T21:32:20.575Z,19.00
2022-11-09T21:34:48.694Z,18.50
2022-11-09T21:37:18.284Z,16.23
2022-11-09T21:39:46.118Z,18.42
2022-11-09T21:42:13.974Z,24.08
2022-11-09T21:44:41.889Z,22.17
2022-11-09T21:47:11.028Z,26.05
2022-11-09T21:49:38.830Z,25.60
2022-11-09T21:52:06.803Z,26.40
2022-11-09T21:54:34.600Z,24.05
2022-11-09T21:57:02.817Z,30.48
2022-11-09T21:59:30.617Z,38.30
2022-11-09T22:01:58.375Z,28.80
2022-11-09T22:04:27.527Z,25.40
2022-11-09T22:06:55.330Z,28.98
2022-11-09T22:09:23.109Z,31.17
2022-11-09T22:12:08.045Z,36.38
2022-11-09T22:14:53.450Z,39.75
2022-11-09T22:17:21.172Z,42.10
2022-11-09T22:20:07.864Z,45.97
2022-11-09T22:22:36.330Z,42.95
2022-11-09T22:25:04.469Z,37.72
2022-11-09T22:27:33.184Z,46.13
2022-11-09T22:30:01.234Z,46.30
2022-11-09T22:32:29.187Z,54.55
2022-11-09T22:34:58.271Z,55.20
2022-11-09T22:37:26.112Z,51.45
2022-11-09T22:39:53.935Z,47.42
2022-11-09T22:42:21.668Z,55.85
2022-11-09T22:44:49.387Z,43.53
2022-11-09T22:47:17.095Z,66.38
2022-11-09T22:49:45.186Z,57.00
2022-11-09T22:52:14.286Z,54.58
2022-11-09T22:54:42.040Z,57.65
2022-11-09T22:57:09.789Z,56.80
2022-11-09T22:59:37.499Z,72.82
2022-11-09T23:02:05.228Z,60.28
2022-11-09T23:04:32.970Z,55.15
2022-11-09T23:07:00.775Z,66.25
2022-11-09T23:09:29.848Z,48.55
2022-11-09T23:11:57.571Z,46.20
2022-11-09T23:14:39.180Z,54.45
2022-11-09T23:17:27.369Z,48.85
2022-11-09T23:19:54.222Z,56.92
2022-11-09T23:22:21.909Z,54.00
2022-11-09T23:25:08.174Z,48.00
2022-11-09T23:27:35.921Z,89.85
2022-11-09T23:30:04.581Z,68.65
2022-11-09T23:32:32.347Z,51.33
2022-11-09T23:35:00.078Z,56.50
2022-11-09T23:37:28.054Z,52.75
2022-11-09T23:39:57.218Z,53.00
2022-11-09T23:42:25.021Z,51.30
2022-11-09T23:44:52.708Z,51.42
2022-11-09T23:47:20.465Z,46.28
2022-11-09T23:49:48.267Z,46.78
2022-11-09T23:52:16.017Z,52.40
2022-11-09T23:54:45.549Z,57.75
2022-11-09T23:57:14.889Z,44.47
2022-11-09T23:59:42.593Z,39.80
